Comus, Maryland
Current Conditions -  °F | °C
As of 1:55 AM on Sunday 26 Oct 2014 (Local Time) from KJYO Reporting Station
Scattered Clouds Scattered Clouds  
Wind Chill: 64°   Ceiling: Unl
Heat Index: 64°   Visibility: 10mi
Dew Point: 54°   Wind: 9mph
Humidity: 68%   Direction: 300°WNW
Pressure: 29.69"   Gusts: NA
Location:  39.2136°N, 77.4192°W
Report Text: KJYO 260555Z AUTO 30008KT 10SM SCT060 18/12 A2969 RMK AO2
Loading
Personal Weather Stations






























Interactive Weather Map
Tropical Storm Tracking
New forecast layout! Learn more

10-Day Weather Forecast

Advertisements
Track Severe Weather on mobile